Terminal Aerodrome Forecast
Issued by NWS Mt. Holly, NJ

Home | Current Version | Previous Version | Text Only | Print | Product List | Glossary On
Versions: 1 2 3 4 5 6 7 8 9 10 11 12 13
000
FTUS41 KPHI 280542 AAA
TAFACY
TAF AMD
KACY 280542Z 2806/2906 09004KT P6SM SKC
      TEMPO 2808/2811 5SM BR SCT005
     FM281400 10007KT P6SM FEW040
     FM290000 14004KT P6SM SKC=

USA.gov is the U.S. government's official web portal to all federal, state and local government web resources and services.